createdAt,value
2022-09-04T00:00:19.114Z,100519.29
2022-09-04T00:22:16.849Z,100536.90
2022-09-04T00:44:27.400Z,100541.10
2022-09-04T01:06:26.123Z,100561.55
2022-09-04T01:28:20.024Z,100568.95
2022-09-04T01:50:12.109Z,100558.85
2022-09-04T02:12:09.698Z,100565.30
2022-09-04T02:34:06.426Z,100564.59
2022-09-04T02:56:11.550Z,100562.96
2022-09-04T03:18:03.958Z,100562.66
2022-09-04T03:40:02.424Z,100556.72
2022-09-04T04:01:58.271Z,100567.15
2022-09-04T04:24:18.067Z,100576.33
2022-09-04T04:46:13.320Z,100589.05
2022-09-04T05:08:08.596Z,100613.90
2022-09-04T05:30:04.298Z,100644.48
2022-09-04T05:52:07.247Z,100655.52
2022-09-04T06:14:07.569Z,100668.48
2022-09-04T06:36:25.329Z,100684.92
2022-09-04T06:58:26.601Z,100701.73
2022-09-04T07:20:20.545Z,100717.11
2022-09-04T07:42:12.604Z,100726.04
2022-09-04T08:04:25.279Z,100746.59
2022-09-04T08:26:21.072Z,100761.48
2022-09-04T08:48:42.519Z,100788.01
2022-09-04T09:10:46.585Z,100789.41
2022-09-04T09:32:57.299Z,100787.92
2022-09-04T09:55:07.993Z,100771.80
2022-09-04T10:17:17.248Z,100776.85
2022-09-04T10:39:37.651Z,100766.40
2022-09-04T11:01:48.269Z,100759.66
2022-09-04T11:24:17.824Z,100754.97
2022-09-04T11:46:36.613Z,100741.11
2022-09-04T12:08:44.466Z,100729.48
2022-09-04T12:30:39.274Z,100714.81
2022-09-04T12:52:30.838Z,100714.37
2022-09-04T13:14:49.140Z,100721.42
2022-09-04T13:36:45.860Z,100730.01
2022-09-04T13:58:36.180Z,100750.83
2022-09-04T14:20:28.105Z,100762.14
2022-09-04T14:42:28.644Z,100767.86
2022-09-04T15:04:21.647Z,100770.39
2022-09-04T15:26:12.629Z,100781.66
2022-09-04T15:48:11.272Z,100777.27
2022-09-04T16:10:03.233Z,100776.77
2022-09-04T16:31:56.880Z,100793.75
2022-09-04T16:53:51.232Z,100814.41
2022-09-04T17:15:53.076Z,100829.63
2022-09-04T17:40:52.233Z,100845.42
2022-09-04T18:00:02.321Z,100879.70
2022-09-04T18:22:25.645Z,100904.42
2022-09-04T18:50:28.032Z,100935.69
2022-09-04T19:06:17.279Z,100960.41
2022-09-04T19:28:04.159Z,100971.70
2022-09-04T19:53:19.540Z,100975.84
2022-09-04T20:12:03.101Z,100988.58
2022-09-04T20:33:52.291Z,100989.37
2022-09-04T20:55:46.900Z,100998.77
2022-09-04T21:17:53.963Z,101010.14
2022-09-04T21:40:02.310Z,101035.74
2022-09-04T22:02:49.467Z,101056.66
2022-09-04T22:24:44.018Z,101064.27
2022-09-04T22:46:55.145Z,101066.38
2022-09-04T23:13:46.679Z,101079.79
2022-09-04T23:31:27.219Z,101073.63
2022-09-04T23:53:29.671Z,101063.95
